Sachse's Hourly Summary for Wednesday, May 9, 2018
Hour Temp
(f)
RH
(%)
Solar Rad.
(MJ/m2)
Rainfall
(in)
Wind
(mph)
5/9/2018 12:00 AM 74 57 0 0 4.21
5/9/2018 1:00 AM 73 58 0 0 5.1
5/9/2018 2:00 AM 73 50 0 0 7.94
5/9/2018 3:00 AM 73 50 0 0 8.52
5/9/2018 4:00 AM 71 50 0 0 6.95
5/9/2018 5:00 AM 70 49 0 0 6.32
5/9/2018 6:00 AM 68 53 0 0 4.77
5/9/2018 7:00 AM 66 58 0.02 0 4.59
5/9/2018 8:00 AM 67 60 0.43 0 4.87
5/9/2018 9:00 AM 69 55 0.81 0 3.84
5/9/2018 10:00 AM 73 53 1.43 0 5.42
5/9/2018 11:00 AM 76 45 2.38 0 6.79
5/9/2018 12:00 PM 79 37 2.5 0 7.34
5/9/2018 1:00 PM 82 35 2.85 0 8.07
5/9/2018 2:00 PM 83 32 2.87 0 10.48
5/9/2018 3:00 PM 84 31 2.75 0 10.45
5/9/2018 4:00 PM 84 30 2.48 0 11.13
5/9/2018 5:00 PM 85 30 2.12 0 10.11
5/9/2018 6:00 PM 85 31 0.89 0 9.18
5/9/2018 7:00 PM 84 34 0.58 0 8.86
5/9/2018 8:00 PM 82 35 0.28 0 7.67
5/9/2018 9:00 PM 80 40 0.01 0 5.43
5/9/2018 10:00 PM 77 44 0 0 4.2
5/9/2018 11:00 PM 74 50 0 0 2.98
Data Summary 76 44 22.40 0.00 6.88